createdAt,value
2022-11-25T00:00:26.715Z,5.80
2022-11-25T00:03:15.179Z,5.80
2022-11-25T00:06:12.019Z,5.80
2022-11-25T00:09:00.960Z,5.80
2022-11-25T00:11:49.191Z,6.00
2022-11-25T00:14:37.564Z,6.00
2022-11-25T00:17:25.945Z,6.10
2022-11-25T00:20:14.369Z,6.10
2022-11-25T00:23:04.177Z,6.10
2022-11-25T00:25:52.249Z,6.20
2022-11-25T00:28:41.904Z,6.20
2022-11-25T00:31:31.079Z,6.30
2022-11-25T00:34:19.290Z,6.30
2022-11-25T00:37:07.577Z,6.30
2022-11-25T00:39:57.104Z,6.30
2022-11-25T00:43:02.794Z,6.30
2022-11-25T00:45:50.821Z,6.30
2022-11-25T00:48:38.725Z,6.30
2022-11-25T00:51:26.614Z,6.30
2022-11-25T00:54:14.512Z,6.30
2022-11-25T00:57:03.759Z,6.30
2022-11-25T00:59:51.636Z,6.20
2022-11-25T01:02:39.588Z,6.40
2022-11-25T01:05:27.461Z,6.40
2022-11-25T01:08:15.494Z,6.30
2022-11-25T01:11:03.894Z,6.30
2022-11-25T01:14:00.634Z,6.40
2022-11-25T01:16:49.620Z,6.40
2022-11-25T01:19:40.060Z,6.40
2022-11-25T01:22:27.961Z,6.40
2022-11-25T01:25:15.879Z,6.40
2022-11-25T01:28:03.842Z,6.40
2022-11-25T01:31:01.231Z,6.40
2022-11-25T01:33:53.111Z,6.40
2022-11-25T01:36:41.183Z,6.40
2022-11-25T01:39:32.895Z,6.40
2022-11-25T01:42:21.239Z,6.50
2022-11-25T01:45:30.003Z,6.50
2022-11-25T01:48:21.477Z,6.50
2022-11-25T01:51:14.858Z,6.50
2022-11-25T01:54:04.676Z,6.50
2022-11-25T01:56:55.890Z,6.50
2022-11-25T01:59:46.936Z,6.50
2022-11-25T02:02:35.137Z,6.50
2022-11-25T02:05:32.362Z,6.50
2022-11-25T02:08:24.235Z,6.50
2022-11-25T02:11:12.604Z,6.50
2022-11-25T02:14:01.133Z,6.50
2022-11-25T02:16:49.428Z,6.40
2022-11-25T02:19:53.213Z,6.50
2022-11-25T02:22:48.168Z,6.50
2022-11-25T02:25:38.422Z,6.50
2022-11-25T02:28:27.510Z,6.40
2022-11-25T02:31:19.932Z,6.40
2022-11-25T02:34:09.651Z,6.40
2022-11-25T02:36:57.836Z,6.40
2022-11-25T02:39:46.063Z,6.40
2022-11-25T02:42:35.358Z,6.40
2022-11-25T02:45:27.377Z,6.40
2022-11-25T02:48:15.782Z,6.40
2022-11-25T02:51:03.928Z,6.40
2022-11-25T02:53:52.476Z,6.40
2022-11-25T02:56:40.504Z,6.30
2022-11-25T02:59:29.758Z,6.30
2022-11-25T03:02:17.747Z,6.30
2022-11-25T03:05:05.930Z,6.40
2022-11-25T03:07:53.847Z,6.30
2022-11-25T03:10:41.782Z,6.30
2022-11-25T03:13:29.648Z,6.40
2022-11-25T03:16:18.918Z,6.40
2022-11-25T03:19:06.940Z,6.40
2022-11-25T03:21:54.954Z,6.40
2022-11-25T03:24:43.043Z,6.40
2022-11-25T03:27:31.295Z,6.40
2022-11-25T03:30:20.331Z,6.40
2022-11-25T03:33:09.885Z,6.30
2022-11-25T03:35:58.092Z,6.30
2022-11-25T03:38:46.217Z,6.40
2022-11-25T03:41:34.251Z,6.30
2022-11-25T03:44:22.449Z,6.30
2022-11-25T03:47:10.755Z,6.30
2022-11-25T03:50:00.202Z,6.40
2022-11-25T03:52:48.446Z,6.30
2022-11-25T03:55:36.412Z,6.30
2022-11-25T03:58:24.451Z,6.30
2022-11-25T04:01:12.556Z,6.30
2022-11-25T04:04:00.650Z,6.30
2022-11-25T04:06:50.189Z,6.20
2022-11-25T04:09:38.171Z,6.20
2022-11-25T04:12:43.610Z,6.30
2022-11-25T04:15:31.914Z,6.30
2022-11-25T04:18:20.399Z,6.30
2022-11-25T04:21:08.319Z,6.30
2022-11-25T04:23:57.824Z,6.40
2022-11-25T04:26:45.870Z,6.30
2022-11-25T04:29:33.928Z,6.30
2022-11-25T04:32:21.979Z,6.30
2022-11-25T04:35:10.294Z,6.30
2022-11-25T04:37:58.229Z,6.30
2022-11-25T04:40:47.681Z,6.30
2022-11-25T04:43:35.690Z,6.30
2022-11-25T04:46:26.051Z,6.20
2022-11-25T04:49:14.003Z,6.30
2022-11-25T04:52:02.258Z,6.30
2022-11-25T04:54:51.278Z,6.30
2022-11-25T04:57:40.755Z,6.30
2022-11-25T05:00:27.676Z,6.30
2022-11-25T05:03:15.819Z,6.30
2022-11-25T05:06:06.768Z,6.40
2022-11-25T05:08:54.858Z,6.40
2022-11-25T05:11:42.783Z,6.40
2022-11-25T05:14:32.186Z,6.40
2022-11-25T05:17:21.799Z,6.30
2022-11-25T05:20:10.298Z,6.30
2022-11-25T05:22:58.607Z,6.30
2022-11-25T05:25:46.518Z,6.40
2022-11-25T05:28:34.357Z,6.40
2022-11-25T05:31:23.568Z,6.30
2022-11-25T05:34:11.445Z,6.40
2022-11-25T05:36:59.331Z,6.40
2022-11-25T05:39:47.212Z,6.40
2022-11-25T05:42:35.117Z,6.40
2022-11-25T05:45:22.941Z,6.50
2022-11-25T05:48:12.207Z,6.50
2022-11-25T05:51:00.623Z,6.40
2022-11-25T05:53:48.517Z,6.40
2022-11-25T05:56:36.694Z,6.40
2022-11-25T05:59:24.598Z,6.50
2022-11-25T06:02:12.929Z,6.60
2022-11-25T06:05:02.329Z,6.60
2022-11-25T06:07:50.739Z,6.60
2022-11-25T06:10:39.616Z,6.50
2022-11-25T06:13:27.679Z,6.50
2022-11-25T06:16:16.494Z,6.50
2022-11-25T06:19:05.659Z,6.50
2022-11-25T06:21:54.930Z,6.60
2022-11-25T06:24:43.196Z,6.60
2022-11-25T06:27:56.825Z,6.60
2022-11-25T06:30:40.387Z,6.60
2022-11-25T06:33:28.426Z,6.60
2022-11-25T06:36:17.904Z,6.60
2022-11-25T06:39:07.219Z,6.60
2022-11-25T06:41:55.077Z,6.70
2022-11-25T06:44:43.019Z,6.70
2022-11-25T06:47:30.909Z,6.60
2022-11-25T06:50:18.785Z,6.70
2022-11-25T06:53:06.681Z,6.70
2022-11-25T06:56:09.972Z,6.70
2022-11-25T06:58:57.904Z,6.70
2022-11-25T07:01:45.946Z,6.70
2022-11-25T07:04:36.199Z,6.70
2022-11-25T07:07:24.254Z,6.70
2022-11-25T07:10:12.399Z,6.70
2022-11-25T07:13:01.651Z,6.70
2022-11-25T07:15:49.562Z,6.70
2022-11-25T07:18:38.339Z,6.70
2022-11-25T07:21:26.513Z,6.70
2022-11-25T07:24:15.207Z,6.80
2022-11-25T07:27:05.806Z,6.80
2022-11-25T07:30:29.252Z,6.80
2022-11-25T07:33:02.985Z,6.80
2022-11-25T07:35:50.969Z,6.80
2022-11-25T07:38:43.598Z,6.80
2022-11-25T07:41:34.995Z,6.80
2022-11-25T07:44:23.019Z,6.80
2022-11-25T07:47:12.215Z,6.80
2022-11-25T07:50:00.151Z,6.80
2022-11-25T07:52:48.037Z,6.80
2022-11-25T07:55:36.239Z,6.80
2022-11-25T07:58:24.176Z,6.80
2022-11-25T08:01:12.785Z,6.90
2022-11-25T08:04:02.038Z,6.90
2022-11-25T08:06:51.108Z,7.00
2022-11-25T08:09:39.488Z,7.00
2022-11-25T08:12:27.591Z,7.00
2022-11-25T08:15:15.633Z,7.00
2022-11-25T08:18:03.537Z,7.00
2022-11-25T08:20:52.874Z,7.00
2022-11-25T08:23:42.920Z,7.00
2022-11-25T08:26:32.803Z,7.10
2022-11-25T08:29:20.767Z,7.20
2022-11-25T08:32:12.013Z,7.20
2022-11-25T08:35:00.163Z,7.20
2022-11-25T08:37:49.693Z,7.20
2022-11-25T08:40:38.083Z,7.20
2022-11-25T08:43:29.361Z,7.30
2022-11-25T08:46:18.839Z,7.30
2022-11-25T08:49:07.974Z,7.30
2022-11-25T08:51:55.992Z,7.30
2022-11-25T08:54:45.245Z,7.30
2022-11-25T08:57:33.108Z,7.30
2022-11-25T09:00:21.514Z,7.40
2022-11-25T09:03:09.844Z,7.40
2022-11-25T09:05:57.826Z,7.40
2022-11-25T09:08:45.913Z,7.50
2022-11-25T09:11:35.270Z,7.40
2022-11-25T09:14:23.289Z,7.40
2022-11-25T09:17:11.494Z,7.30
2022-11-25T09:19:59.381Z,7.40
2022-11-25T09:22:47.287Z,7.30
2022-11-25T09:25:35.607Z,7.40
2022-11-25T09:28:25.481Z,7.40
2022-11-25T09:31:13.470Z,7.40
2022-11-25T09:34:01.466Z,7.50
2022-11-25T09:36:49.524Z,7.40
2022-11-25T09:39:37.578Z,7.50
2022-11-25T09:42:48.782Z,7.50
2022-11-25T09:46:00.924Z,7.40
2022-11-25T09:48:55.512Z,7.50
2022-11-25T09:51:49.306Z,7.50
2022-11-25T09:54:38.785Z,7.50
2022-11-25T09:57:28.868Z,7.60
2022-11-25T10:00:17.802Z,7.60
2022-11-25T10:03:08.303Z,7.60
2022-11-25T10:05:59.739Z,7.70
2022-11-25T10:08:49.688Z,7.70
2022-11-25T10:11:44.351Z,7.70
2022-11-25T10:14:33.972Z,7.70
2022-11-25T10:17:25.185Z,7.70
2022-11-25T10:20:18.262Z,7.70
2022-11-25T10:23:09.792Z,7.80
2022-11-25T10:25:58.579Z,7.80
2022-11-25T10:28:52.086Z,7.80
2022-11-25T10:31:40.854Z,7.90
2022-11-25T10:34:32.363Z,8.00
2022-11-25T10:37:26.174Z,8.00
2022-11-25T10:40:15.589Z,8.00
2022-11-25T10:43:11.089Z,8.00
2022-11-25T10:46:03.148Z,8.10
2022-11-25T10:48:55.648Z,8.10
2022-11-25T10:51:46.967Z,8.10
2022-11-25T10:54:36.287Z,8.10
2022-11-25T10:57:27.669Z,8.10
2022-11-25T11:00:26.363Z,8.20
2022-11-25T11:03:15.260Z,8.20
2022-11-25T11:06:03.162Z,8.20
2022-11-25T11:08:51.004Z,8.20
2022-11-25T11:11:47.816Z,8.30
2022-11-25T11:14:35.993Z,8.30
2022-11-25T11:17:36.643Z,8.30
2022-11-25T11:20:25.800Z,8.20
2022-11-25T11:23:14.366Z,8.20
2022-11-25T11:26:02.879Z,8.30
2022-11-25T11:28:58.148Z,8.30
2022-11-25T11:31:48.059Z,8.30
2022-11-25T11:34:47.725Z,8.30
2022-11-25T11:37:41.665Z,8.30
2022-11-25T11:40:33.161Z,8.40
2022-11-25T11:43:29.765Z,8.40
2022-11-25T11:46:28.392Z,8.40
2022-11-25T11:49:27.636Z,8.40
2022-11-25T11:52:21.294Z,8.40
2022-11-25T11:55:18.367Z,8.40
2022-11-25T11:58:14.958Z,8.50
2022-11-25T12:01:08.391Z,8.60
2022-11-25T12:03:59.717Z,8.60
2022-11-25T12:06:54.492Z,8.60
2022-11-25T12:09:44.725Z,8.60
2022-11-25T12:12:34.898Z,8.70
2022-11-25T12:15:25.648Z,8.70
2022-11-25T12:18:20.347Z,8.70
2022-11-25T12:21:14.135Z,8.70
2022-11-25T12:24:04.938Z,8.70
2022-11-25T12:26:57.099Z,8.70
2022-11-25T12:29:46.762Z,8.80
2022-11-25T12:32:43.063Z,8.80
2022-11-25T12:35:45.972Z,8.80
2022-11-25T12:38:39.466Z,8.90
2022-11-25T12:41:30.933Z,8.70
2022-11-25T12:44:21.140Z,8.70
2022-11-25T12:47:11.396Z,8.80
2022-11-25T12:49:59.471Z,8.90
2022-11-25T12:52:52.381Z,8.90
2022-11-25T12:55:42.014Z,8.90
2022-11-25T12:58:40.671Z,9.00
2022-11-25T13:01:44.323Z,8.90
2022-11-25T13:04:53.731Z,9.00
2022-11-25T13:07:44.460Z,9.00
2022-11-25T13:10:42.919Z,9.10
2022-11-25T13:13:49.340Z,9.20
2022-11-25T13:16:37.972Z,9.30
2022-11-25T13:19:26.275Z,9.30
2022-11-25T13:22:27.312Z,9.30
2022-11-25T13:25:25.796Z,9.30
2022-11-25T13:28:29.247Z,9.30
2022-11-25T13:31:25.202Z,9.30
2022-11-25T13:34:34.516Z,9.30
2022-11-25T13:37:36.617Z,9.30
2022-11-25T13:40:34.273Z,9.40
2022-11-25T13:43:23.345Z,9.50
2022-11-25T13:46:28.239Z,9.50
2022-11-25T13:49:28.704Z,9.60
2022-11-25T13:52:31.497Z,9.60
2022-11-25T13:55:32.082Z,9.60
2022-11-25T13:58:21.166Z,9.70
2022-11-25T14:01:30.287Z,9.60
2022-11-25T14:04:19.733Z,9.50
2022-11-25T14:07:20.188Z,9.50
2022-11-25T14:10:22.234Z,9.50
2022-11-25T14:13:22.863Z,9.50
2022-11-25T14:16:15.626Z,9.50
2022-11-25T14:19:43.216Z,9.50
2022-11-25T14:22:32.079Z,9.40
2022-11-25T14:25:22.212Z,9.40
2022-11-25T14:28:15.906Z,9.40
2022-11-25T14:31:06.401Z,9.30
2022-11-25T14:33:56.984Z,9.30
2022-11-25T14:36:47.296Z,9.30
2022-11-25T14:39:39.269Z,9.20
2022-11-25T14:42:29.108Z,9.20
2022-11-25T14:45:24.691Z,9.20
2022-11-25T14:48:16.285Z,9.10
2022-11-25T14:51:07.052Z,9.10
2022-11-25T14:53:55.294Z,9.10
2022-11-25T14:56:44.914Z,9.00
2022-11-25T14:59:32.863Z,9.00
2022-11-25T15:02:25.186Z,9.00
2022-11-25T15:05:17.397Z,8.90
2022-11-25T15:08:11.014Z,8.90
2022-11-25T15:11:00.014Z,8.90
2022-11-25T15:13:51.043Z,8.80
2022-11-25T15:16:40.177Z,8.80
2022-11-25T15:19:33.822Z,8.80
2022-11-25T15:22:24.275Z,8.70
2022-11-25T15:25:15.663Z,8.70
2022-11-25T15:28:03.599Z,8.60
2022-11-25T15:31:00.203Z,8.60
2022-11-25T15:33:48.410Z,8.60
2022-11-25T15:36:36.336Z,8.60
2022-11-25T15:39:26.150Z,8.50
2022-11-25T15:42:17.850Z,8.50
2022-11-25T15:45:11.867Z,8.40
2022-11-25T15:48:01.222Z,8.40
2022-11-25T15:50:49.133Z,8.40
2022-11-25T15:53:39.216Z,8.30
2022-11-25T15:56:28.059Z,8.30
2022-11-25T15:59:35.047Z,8.30
2022-11-25T16:02:31.222Z,8.30
2022-11-25T16:05:34.016Z,8.30
2022-11-25T16:08:26.608Z,8.30
2022-11-25T16:11:18.380Z,8.30
2022-11-25T16:14:18.538Z,8.30
2022-11-25T16:17:10.293Z,8.30
2022-11-25T16:19:58.198Z,8.30
2022-11-25T16:22:46.264Z,8.20
2022-11-25T16:25:35.652Z,8.30
2022-11-25T16:28:24.023Z,8.30
2022-11-25T16:31:16.923Z,8.30
2022-11-25T16:34:12.674Z,8.30
2022-11-25T16:37:00.627Z,8.20
2022-11-25T16:39:48.480Z,8.20
2022-11-25T16:42:38.824Z,8.20
2022-11-25T16:45:27.963Z,8.20
2022-11-25T16:48:17.056Z,8.20
2022-11-25T16:51:06.677Z,8.20
2022-11-25T16:53:54.676Z,8.20
2022-11-25T16:56:44.262Z,8.10
2022-11-25T16:59:35.177Z,8.20
2022-11-25T17:02:23.583Z,8.20
2022-11-25T17:05:16.550Z,8.20
2022-11-25T17:08:04.702Z,8.20
2022-11-25T17:10:54.097Z,8.20
2022-11-25T17:13:43.927Z,8.20
2022-11-25T17:16:33.222Z,8.20
2022-11-25T17:19:21.243Z,8.20
2022-11-25T17:22:14.066Z,8.20
2022-11-25T17:25:01.933Z,8.20
2022-11-25T17:27:50.209Z,8.20
2022-11-25T17:30:39.994Z,8.20
2022-11-25T17:33:29.373Z,8.20
2022-11-25T17:36:17.290Z,8.20
2022-11-25T17:39:05.189Z,8.20
2022-11-25T17:41:53.119Z,8.20
2022-11-25T17:44:42.216Z,8.10
2022-11-25T17:47:30.197Z,8.10
2022-11-25T17:50:20.625Z,8.10
2022-11-25T17:53:09.304Z,8.10
2022-11-25T17:55:57.297Z,8.10
2022-11-25T17:58:45.176Z,8.20
2022-11-25T18:01:33.139Z,8.20
2022-11-25T18:04:22.315Z,8.10
2022-11-25T18:07:11.971Z,8.10
2022-11-25T18:09:59.868Z,8.20
2022-11-25T18:12:49.062Z,8.20
2022-11-25T18:15:36.907Z,8.20
2022-11-25T18:18:25.639Z,8.20
2022-11-25T18:21:13.768Z,8.20
2022-11-25T18:24:03.077Z,8.10
2022-11-25T18:26:52.984Z,8.10
2022-11-25T18:29:40.864Z,8.10
2022-11-25T18:32:28.867Z,8.10
2022-11-25T18:35:18.579Z,8.10
2022-11-25T18:38:06.867Z,8.20
2022-11-25T18:40:56.177Z,8.20
2022-11-25T18:43:44.055Z,8.20
2022-11-25T18:46:34.586Z,8.20
2022-11-25T18:49:23.713Z,8.20
2022-11-25T18:52:11.587Z,8.20
2022-11-25T18:54:59.450Z,8.10
2022-11-25T18:57:49.948Z,8.10
2022-11-25T19:00:38.045Z,8.10
2022-11-25T19:03:26.628Z,8.10
2022-11-25T19:06:15.383Z,8.10
2022-11-25T19:09:04.012Z,8.00
2022-11-25T19:11:52.996Z,8.10
2022-11-25T19:14:42.952Z,8.10
2022-11-25T19:17:30.885Z,8.10
2022-11-25T19:20:20.331Z,8.10
2022-11-25T19:23:16.796Z,8.00
2022-11-25T19:26:07.963Z,8.00
2022-11-25T19:28:56.866Z,8.00
2022-11-25T19:31:46.489Z,8.00
2022-11-25T19:34:36.889Z,8.00
2022-11-25T19:37:25.424Z,8.00
2022-11-25T19:40:14.561Z,8.10
2022-11-25T19:43:02.453Z,8.10
2022-11-25T19:45:50.536Z,8.10
2022-11-25T19:48:40.483Z,8.10
2022-11-25T19:51:33.215Z,8.10
2022-11-25T19:54:23.504Z,8.10
2022-11-25T19:57:15.734Z,8.10
2022-11-25T20:00:07.629Z,8.20
2022-11-25T20:02:56.526Z,8.10
2022-11-25T20:05:45.949Z,8.20
2022-11-25T20:08:33.901Z,8.20
2022-11-25T20:11:21.737Z,8.20
2022-11-25T20:14:09.684Z,8.20
2022-11-25T20:16:57.742Z,8.20
2022-11-25T20:19:45.916Z,8.30
2022-11-25T20:22:36.428Z,8.20
2022-11-25T20:25:24.778Z,8.20
2022-11-25T20:28:16.474Z,8.20
2022-11-25T20:31:04.845Z,8.10
2022-11-25T20:33:52.861Z,8.10
2022-11-25T20:36:41.606Z,8.10
2022-11-25T20:39:36.906Z,8.00
2022-11-25T20:42:25.901Z,8.00
2022-11-25T20:45:15.108Z,8.10
2022-11-25T20:48:03.210Z,8.10
2022-11-25T20:50:51.670Z,8.00
2022-11-25T20:53:42.292Z,8.10
2022-11-25T20:56:31.531Z,8.10
2022-11-25T20:59:20.574Z,8.10
2022-11-25T21:02:08.555Z,8.10
2022-11-25T21:04:56.416Z,8.20
2022-11-25T21:07:44.444Z,8.20
2022-11-25T21:10:34.679Z,8.20
2022-11-25T21:13:25.256Z,8.20
2022-11-25T21:16:16.367Z,8.20
2022-11-25T21:19:04.355Z,8.20
2022-11-25T21:21:52.632Z,8.10
2022-11-25T21:24:44.681Z,8.10
2022-11-25T21:27:32.669Z,8.10
2022-11-25T21:30:23.140Z,8.00
2022-11-25T21:33:11.888Z,8.00
2022-11-25T21:36:00.769Z,7.90
2022-11-25T21:38:50.754Z,7.90
2022-11-25T21:41:38.686Z,8.00
2022-11-25T21:44:28.299Z,7.90
2022-11-25T21:47:19.068Z,8.00
2022-11-25T21:50:13.414Z,8.00
2022-11-25T21:53:02.537Z,8.00
2022-11-25T21:55:50.904Z,8.10
2022-11-25T21:58:39.172Z,8.10
2022-11-25T22:01:27.118Z,8.00
2022-11-25T22:04:17.498Z,8.10
2022-11-25T22:07:05.844Z,8.10
2022-11-25T22:09:53.746Z,8.00
2022-11-25T22:12:42.909Z,8.00
2022-11-25T22:15:31.352Z,8.00
2022-11-25T22:18:20.332Z,7.90
2022-11-25T22:21:11.803Z,7.90
2022-11-25T22:23:59.659Z,7.90
2022-11-25T22:26:49.674Z,7.90
2022-11-25T22:29:39.246Z,7.90
2022-11-25T22:32:27.224Z,7.90
2022-11-25T22:35:16.028Z,7.90
2022-11-25T22:38:07.669Z,7.80
2022-11-25T22:40:56.651Z,7.70
2022-11-25T22:43:47.343Z,7.80
2022-11-25T22:46:37.643Z,7.80
2022-11-25T22:49:31.325Z,7.80
2022-11-25T22:52:20.653Z,7.70
2022-11-25T22:55:16.543Z,7.70
2022-11-25T22:58:04.791Z,7.70
2022-11-25T23:00:53.701Z,7.80
2022-11-25T23:03:42.228Z,7.80
2022-11-25T23:06:30.996Z,7.80
2022-11-25T23:09:19.962Z,7.90
2022-11-25T23:12:10.889Z,7.90
2022-11-25T23:14:58.920Z,7.90
2022-11-25T23:17:50.320Z,7.90
2022-11-25T23:20:39.402Z,7.90
2022-11-25T23:23:28.474Z,7.90
2022-11-25T23:26:16.686Z,7.90
2022-11-25T23:29:06.467Z,7.90
2022-11-25T23:31:54.551Z,7.90
2022-11-25T23:34:42.450Z,7.90
2022-11-25T23:37:30.362Z,7.90
2022-11-25T23:40:19.892Z,7.90
2022-11-25T23:43:11.188Z,8.00
2022-11-25T23:46:00.583Z,7.90
2022-11-25T23:48:51.321Z,7.90
2022-11-25T23:51:39.251Z,7.90
2022-11-25T23:54:30.092Z,7.80
2022-11-25T23:57:18.324Z,7.80
